createdAt,value
2017-12-08T00:01:44.085Z,5.80
2017-12-08T00:06:46.345Z,5.90
2017-12-08T00:11:47.774Z,5.80
2017-12-08T00:16:49.209Z,5.80
2017-12-08T00:21:50.645Z,5.80
2017-12-08T00:26:52.838Z,5.90
2017-12-08T00:31:54.285Z,5.90
2017-12-08T00:36:55.730Z,5.80
2017-12-08T00:41:57.905Z,5.80
2017-12-08T00:46:59.337Z,5.70
2017-12-08T00:52:00.765Z,5.80
2017-12-08T00:57:02.219Z,5.80
2017-12-08T01:02:03.669Z,5.80
2017-12-08T01:07:05.174Z,5.90
2017-12-08T01:12:06.641Z,5.80
2017-12-08T01:17:08.841Z,5.80
2017-12-08T01:22:10.292Z,5.80
2017-12-08T01:27:12.481Z,5.80
2017-12-08T01:32:13.930Z,5.70
2017-12-08T01:37:15.389Z,5.80
2017-12-08T01:42:16.844Z,5.80
2017-12-08T01:47:18.313Z,5.80
2017-12-08T01:52:19.815Z,5.80
2017-12-08T01:57:22.041Z,5.90
2017-12-08T02:02:23.505Z,5.80
2017-12-08T02:07:25.017Z,5.80
2017-12-08T02:12:26.503Z,5.70
2017-12-08T02:17:27.989Z,5.80
2017-12-08T02:22:29.485Z,5.90
2017-12-08T02:27:30.966Z,5.90
2017-12-08T02:32:32.473Z,5.90
2017-12-08T02:37:34.698Z,6.00
2017-12-08T02:42:36.950Z,6.00
2017-12-08T02:47:38.391Z,6.00
2017-12-08T02:52:40.581Z,6.10
2017-12-08T02:57:42.054Z,6.10
2017-12-08T03:02:43.529Z,6.10
2017-12-08T03:07:45.025Z,6.00
2017-12-08T03:12:46.523Z,6.10
2017-12-08T03:17:48.000Z,6.20
2017-12-08T03:22:50.197Z,6.20
2017-12-08T03:27:51.637Z,6.20
2017-12-08T03:32:53.085Z,6.20
2017-12-08T03:37:55.310Z,6.30
2017-12-08T03:42:56.798Z,6.30
2017-12-08T03:47:58.269Z,6.40
2017-12-08T03:53:00.486Z,6.40
2017-12-08T03:58:02.701Z,6.40
2017-12-08T04:03:04.193Z,6.40
2017-12-08T04:08:05.732Z,6.40
2017-12-08T04:13:07.201Z,6.40
2017-12-08T04:18:09.414Z,6.40
2017-12-08T04:23:10.865Z,6.40
2017-12-08T04:28:13.074Z,6.30
2017-12-08T04:33:14.513Z,6.30
2017-12-08T04:38:16.700Z,6.20
2017-12-08T04:43:18.165Z,6.20
2017-12-08T04:48:19.646Z,6.20
2017-12-08T04:53:21.121Z,6.10
2017-12-08T04:58:22.617Z,6.10
2017-12-08T05:03:24.121Z,6.10
2017-12-08T05:08:25.621Z,6.10
2017-12-08T05:13:27.114Z,6.10
2017-12-08T05:18:28.566Z,6.10
2017-12-08T05:23:30.059Z,6.20
2017-12-08T05:28:31.538Z,6.20
2017-12-08T05:33:33.741Z,6.10
2017-12-08T05:38:35.209Z,6.10
2017-12-08T05:43:36.704Z,6.10
2017-12-08T05:48:38.220Z,6.20
2017-12-08T05:53:39.685Z,6.20
2017-12-08T05:58:41.989Z,6.20
2017-12-08T06:03:43.466Z,6.10
2017-12-08T06:08:44.966Z,6.10
2017-12-08T06:13:46.466Z,6.10
2017-12-08T06:18:47.941Z,6.10
2017-12-08T06:23:50.182Z,6.10
2017-12-08T06:28:52.397Z,6.10
2017-12-08T06:33:53.853Z,6.10
2017-12-08T06:38:55.320Z,6.20
2017-12-08T06:43:56.766Z,6.20
2017-12-08T06:48:58.213Z,6.10
2017-12-08T06:54:00.405Z,6.10
2017-12-08T06:59:01.847Z,6.10
2017-12-08T07:04:03.302Z,6.10
2017-12-08T07:09:05.561Z,6.10
2017-12-08T07:14:07.053Z,6.10
2017-12-08T07:19:08.550Z,6.20
2017-12-08T07:24:10.053Z,6.20
2017-12-08T07:29:11.509Z,6.20
2017-12-08T07:34:13.729Z,6.20
2017-12-08T07:39:15.190Z,6.20
2017-12-08T07:44:16.661Z,6.10
2017-12-08T07:49:18.921Z,6.00
2017-12-08T07:54:20.354Z,6.00
2017-12-08T07:59:22.651Z,6.00
2017-12-08T08:04:24.934Z,6.10
2017-12-08T08:09:27.214Z,6.20
2017-12-08T08:14:29.417Z,6.10
2017-12-08T08:19:30.922Z,6.10
2017-12-08T08:24:32.417Z,6.10
2017-12-08T08:29:33.866Z,6.10
2017-12-08T08:34:35.378Z,6.10
2017-12-08T08:39:36.996Z,6.20
2017-12-08T08:44:38.613Z,6.20
2017-12-08T08:49:41.153Z,6.20
2017-12-08T08:54:42.874Z,6.20
2017-12-08T08:59:44.394Z,6.20
2017-12-08T09:04:46.878Z,6.30
2017-12-08T09:09:48.399Z,6.30
2017-12-08T09:14:49.854Z,6.30
2017-12-08T09:19:52.062Z,6.40
2017-12-08T09:24:53.534Z,6.40
2017-12-08T09:29:55.037Z,6.40
2017-12-08T09:34:57.294Z,6.50
2017-12-08T09:39:58.725Z,6.50
2017-12-08T09:45:00.260Z,6.50
2017-12-08T09:50:01.754Z,6.60
2017-12-08T09:55:04.046Z,6.70
2017-12-08T10:00:05.622Z,6.80
2017-12-08T10:05:07.234Z,6.90
2017-12-08T10:10:08.757Z,6.70
2017-12-08T10:15:10.218Z,6.60
2017-12-08T10:20:11.669Z,6.50
2017-12-08T10:25:13.153Z,6.60
2017-12-08T10:30:15.397Z,6.90
2017-12-08T10:35:17.901Z,7.20
2017-12-08T10:40:19.783Z,7.20
2017-12-08T10:45:21.313Z,7.30
2017-12-08T10:50:22.821Z,7.30
2017-12-08T10:55:24.329Z,7.10
2017-12-08T11:00:32.001Z,7.00
2017-12-08T11:05:33.587Z,6.90
2017-12-08T11:10:35.310Z,6.80
2017-12-08T11:15:36.968Z,6.70
2017-12-08T11:20:38.498Z,6.70
2017-12-08T11:25:39.968Z,6.90
2017-12-08T11:30:41.514Z,6.90
2017-12-08T11:35:43.301Z,6.80
2017-12-08T11:40:45.689Z,6.80
2017-12-08T11:45:47.236Z,6.70
2017-12-08T11:50:50.221Z,6.60
2017-12-08T11:55:51.743Z,6.60
2017-12-08T12:00:53.428Z,6.50
2017-12-08T12:05:55.169Z,6.50
2017-12-08T12:10:56.722Z,6.30
2017-12-08T12:15:58.304Z,6.10
2017-12-08T12:20:59.997Z,5.90
2017-12-08T12:26:01.848Z,5.70
2017-12-08T12:31:03.638Z,5.80
2017-12-08T12:36:05.074Z,6.00
2017-12-08T12:41:07.262Z,6.50
2017-12-08T12:46:08.712Z,6.50
2017-12-08T12:51:10.213Z,6.40
2017-12-08T12:56:12.425Z,6.30
2017-12-08T13:01:14.297Z,6.30
2017-12-08T13:06:15.763Z,6.10
2017-12-08T13:11:17.457Z,5.80
2017-12-08T13:16:19.160Z,5.60
2017-12-08T13:21:21.337Z,5.30
2017-12-08T13:26:22.979Z,5.30
2017-12-08T13:31:24.394Z,5.20
2017-12-08T13:36:25.836Z,5.10
2017-12-08T13:41:28.018Z,4.90
2017-12-08T13:46:29.501Z,4.90
2017-12-08T13:51:31.050Z,5.00
2017-12-08T13:56:44.619Z,5.00
2017-12-08T14:01:46.293Z,4.90
2017-12-08T14:06:48.722Z,5.00
2017-12-08T14:11:50.357Z,4.90
2017-12-08T14:16:51.934Z,4.90
2017-12-08T14:21:53.929Z,4.90
2017-12-08T14:26:56.202Z,4.70
2017-12-08T14:31:57.686Z,4.70
2017-12-08T14:36:59.395Z,4.70
2017-12-08T14:42:00.954Z,4.70
2017-12-08T14:47:02.442Z,4.50
2017-12-08T14:52:04.035Z,4.50
2017-12-08T14:57:06.450Z,4.40
2017-12-08T15:02:07.898Z,4.40
2017-12-08T15:07:09.339Z,4.40
2017-12-08T15:12:10.874Z,4.40
2017-12-08T15:17:13.970Z,4.20
2017-12-08T15:22:16.285Z,4.20
2017-12-08T15:27:17.970Z,4.20
2017-12-08T15:32:19.451Z,4.10
2017-12-08T15:37:21.042Z,4.10
2017-12-08T15:42:22.702Z,4.10
2017-12-08T15:47:24.262Z,4.10
2017-12-08T15:52:25.842Z,4.10
2017-12-08T15:57:27.326Z,4.10
2017-12-08T16:02:28.789Z,3.90
2017-12-08T16:07:30.399Z,4.00
2017-12-08T16:12:32.003Z,3.90
2017-12-08T16:17:34.307Z,3.70
2017-12-08T16:22:35.791Z,3.70
2017-12-08T16:27:38.372Z,3.50
2017-12-08T16:32:40.635Z,3.40
2017-12-08T16:37:42.146Z,3.40
2017-12-08T16:42:43.625Z,3.60
2017-12-08T16:47:45.098Z,3.50
2017-12-08T16:52:46.553Z,3.40
2017-12-08T16:57:48.774Z,3.60
2017-12-08T17:02:50.250Z,3.60
2017-12-08T17:07:51.766Z,3.60
2017-12-08T17:12:53.978Z,3.60
2017-12-08T17:17:56.720Z,3.60
2017-12-08T17:22:58.962Z,3.60
2017-12-08T17:28:01.254Z,3.70
2017-12-08T17:33:03.529Z,3.60
2017-12-08T17:38:05.816Z,3.60
2017-12-08T17:43:07.578Z,3.50
2017-12-08T17:48:09.802Z,3.30
2017-12-08T17:53:11.263Z,3.20
2017-12-08T17:58:12.702Z,3.00
2017-12-08T18:03:14.194Z,3.00
2017-12-08T18:08:15.706Z,2.90
2017-12-08T18:13:17.327Z,2.80
2017-12-08T18:18:18.965Z,2.70
2017-12-08T18:23:20.466Z,2.70
2017-12-08T18:28:22.347Z,2.60
2017-12-08T18:33:24.627Z,2.70
2017-12-08T18:38:26.125Z,2.60
2017-12-08T18:43:27.813Z,2.80
2017-12-08T18:48:30.226Z,2.70
2017-12-08T18:53:31.820Z,2.70
2017-12-08T18:58:33.482Z,2.60
2017-12-08T19:03:34.945Z,2.60
2017-12-08T19:08:36.423Z,2.50
2017-12-08T19:13:38.822Z,2.60
2017-12-08T19:18:40.362Z,2.60
2017-12-08T19:23:41.843Z,2.70
2017-12-08T19:28:43.354Z,2.70
2017-12-08T19:33:45.005Z,2.80
2017-12-08T19:38:47.259Z,2.90
2017-12-08T19:43:48.771Z,2.80
2017-12-08T19:48:51.042Z,2.90
2017-12-08T19:53:52.535Z,2.80
2017-12-08T19:58:54.033Z,2.90
2017-12-08T20:03:55.538Z,2.90
2017-12-08T20:08:57.585Z,3.00
2017-12-08T20:13:59.939Z,3.10
2017-12-08T20:19:01.458Z,3.10
2017-12-08T20:24:02.969Z,3.20
2017-12-08T20:29:05.230Z,3.20
2017-12-08T20:34:06.909Z,3.10
2017-12-08T20:39:08.447Z,3.20
2017-12-08T20:44:09.925Z,3.20
2017-12-08T20:49:11.412Z,3.20
2017-12-08T20:54:12.946Z,3.20
2017-12-08T20:59:15.176Z,3.10
2017-12-08T21:04:16.622Z,3.00
2017-12-08T21:09:18.087Z,3.00
2017-12-08T21:14:19.665Z,3.00
2017-12-08T21:19:21.134Z,2.90
2017-12-08T21:24:22.862Z,3.00
2017-12-08T21:29:24.353Z,3.00
2017-12-08T21:34:25.806Z,2.90
2017-12-08T21:39:27.274Z,2.90
2017-12-08T21:44:28.922Z,2.90
2017-12-08T21:49:30.361Z,3.00
2017-12-08T21:54:31.794Z,3.00
2017-12-08T21:59:34.082Z,3.00
2017-12-08T22:04:35.534Z,2.90
2017-12-08T22:09:37.002Z,3.00
2017-12-08T22:14:38.492Z,3.10
2017-12-08T22:19:40.038Z,3.20
2017-12-08T22:24:41.534Z,3.10
2017-12-08T22:29:43.058Z,3.20
2017-12-08T22:34:44.558Z,3.10
2017-12-08T22:39:46.046Z,3.10
2017-12-08T22:44:48.249Z,3.10
2017-12-08T22:49:49.708Z,3.10
2017-12-08T22:54:51.230Z,3.10
2017-12-08T22:59:52.677Z,3.00
2017-12-08T23:04:54.117Z,3.10
2017-12-08T23:09:55.582Z,3.10
2017-12-08T23:14:57.102Z,3.10
2017-12-08T23:19:58.558Z,3.10
2017-12-08T23:24:59.997Z,3.10
2017-12-08T23:30:02.173Z,3.00
2017-12-08T23:35:03.646Z,3.00
2017-12-08T23:40:05.839Z,2.90
2017-12-08T23:45:07.269Z,2.90
2017-12-08T23:50:08.715Z,2.90
2017-12-08T23:55:10.146Z,3.10
